EDT,Max TemperatureF,Mean TemperatureF,Min TemperatureF,Max Dew PointF,MeanDew PointF,Min DewpointF,Max Humidity, Mean Humidity, Min Humidity, Max Sea Level PressureIn, Mean Sea Level PressureIn, Min Sea Level PressureIn, Max VisibilityMiles, Mean VisibilityMiles, Min VisibilityMiles, Max Wind SpeedMPH, Mean Wind SpeedMPH, Max Gust SpeedMPH,PrecipitationIn, CloudCover, Events, WindDirDegrees
2011-10-1,93,86,78,79,76,75,94,77,59,29.88,29.82,29.77,6,6,6,7,2,,0.00,3,Thunderstorm,320
2011-10-2,91,84,77,79,75,72,94,78,52,30.01,29.92,29.85,6,6,6,8,3,,0.00,4,Rain-Thunderstorm,46
2011-10-3,89,83,77,81,76,72,94,77,55,30.06,30.01,29.97,6,6,6,12,5,,0.00,6,,61
2011-10-4,89,82,75,81,73,68,100,74,52,30.08,30.03,30.00,6,6,6,14,8,,0.00,6,Rain-Thunderstorm,48
2011-10-5,87,82,78,75,71,68,84,70,58,30.03,29.99,29.95,6,6,6,17,11,25,0.00,7,,40
2011-10-6,87,82,78,75,70,66,78,66,49,30.01,29.97,29.93,6,6,6,18,13,29,0.00,4,,62
2011-10-7,87,82,78,73,70,66,79,65,49,30.02,29.98,29.94,6,6,6,17,11,,0.00,4,,73
2011-10-8,86,80,75,79,76,73,94,86,70,29.97,29.91,29.85,6,6,6,25,12,31,0.00,5,Rain,76
2011-10-9,98,86,75,79,75,70,94,75,52,29.86,29.82,29.77,6,6,6,13,5,,0.00,5,Thunderstorm,170
2011-10-10,91,84,77,81,78,73,100,83,63,29.89,29.84,29.81,6,6,4,114,9,,0.00,6,Rain-Thunderstorm-Tornado,151
2011-10-11,87,82,78,79,75,72,89,77,62,29.91,29.86,29.81,6,6,6,10,5,,0.00,5,,145
2011-10-12,91,83,75,79,75,72,100,79,52,29.90,29.86,29.82,6,6,6,7,2,,0.00,3,,19
2011-10-13,93,84,75,81,74,70,94,75,49,29.86,29.83,29.76,6,6,6,7,1,,0.00,3,Thunderstorm,320
2011-10-14,91,84,77,79,76,73,94,79,62,29.96,29.88,29.82,6,6,6,9,2,,0.00,6,Rain-Thunderstorm-Tornado,198
2011-10-15,84,81,78,81,77,72,100,86,70,30.01,29.96,29.91,6,6,0,18,5,28,0.00,7,Rain-Thunderstorm,62
2011-10-16,82,78,75,79,76,73,100,90,74,30.03,29.99,29.93,6,6,1,18,6,,0.00,8,Rain,80
2011-10-17,87,82,77,79,75,72,89,79,58,29.98,29.92,29.88,6,6,6,10,7,,0.00,6,Rain-Thunderstorm,96
2011-10-18,87,82,78,79,76,73,89,81,66,29.88,29.83,29.79,6,6,6,16,6,,0.00,6,,141
2011-10-19,91,86,80,79,75,72,89,70,55,29.86,29.79,29.75,6,6,6,16,11,29,0.00,6,Rain-Thunderstorm,194
2011-10-20,82,80,77,77,67,57,100,69,45,30.04,29.96,29.87,6,6,6,16,8,24,0.00,7,Rain,353
2011-10-21,82,78,75,68,63,57,74,61,42,30.07,30.02,29.97,6,6,6,12,9,,0.00,7,,20
2011-10-22,82,78,75,70,66,61,78,64,54,29.97,29.91,29.86,6,6,6,16,11,,0.00,7,,12
2011-10-23,89,82,75,79,73,68,100,76,49,29.96,29.89,29.83,6,6,6,12,7,,0.00,3,Rain,93
2011-10-24,87,81,75,79,75,72,94,87,75,30.02,29.96,29.92,6,6,4,14,3,,0.00,5,Rain,41
2011-10-25,84,80,77,72,70,66,83,70,58,30.07,30.02,29.99,6,6,6,16,12,25,0.00,6,,46
2011-10-26,87,82,77,73,70,66,83,69,49,30.04,29.98,29.93,6,6,6,14,11,,0.00,6,Rain,82
2011-10-27,89,84,78,79,73,66,94,74,46,29.97,29.92,29.87,6,6,6,13,7,,0.00,5,,99
2011-10-28,89,84,78,81,77,73,94,82,62,29.96,29.91,29.86,6,6,6,14,4,,0.00,4,,122
2011-10-29,91,84,78,81,77,73,94,80,55,29.93,29.88,29.84,6,6,6,8,5,,0.00,5,Rain-Thunderstorm,182
2011-10-30,87,82,77,79,76,73,100,83,62,30.02,29.96,29.90,6,6,6,12,4,,0.00,6,Rain-Thunderstorm,81
2011-10-31,91,84,77,81,77,73,100,85,55,30.01,29.95,29.90,6,6,6,10,6,,0.00,6,Rain-Thunderstorm,135